Hooper Bay Airport Hooper Bay US
ICAO: PAHP
IATA:
Category: Medium
Scheduled Services:

Elevation: 13 ft
TransAlt. 18000 ft.

Airport Communications:
AWOS 3:135.1
CTAF:123
KENAI RDO:122.4
TWEB:115.2

PAHP Zoom In..

If you have problems with the map follow the link
https://www.worldairports.se/pages/airport.php?
ICAO=PAHP

Runways:

(A) RW 13 length 3300 ft width 75 ft
---- / hdg 136

(B) RW 31 length 3300 ft width 75 ft
---- / hdg 316

Location; PAHP
Day. 14 / Time. 22.56 Zulu
* Altimeter: 29.43
* Temperature: -12° c. -10.4°f.
* Wind from: 000° Speed 00 kn.
Dewpoint: -13° c.
Visibility: 8 Statute Miles.
Clouds: Scattered 2800 ft.
Clouds: Overcast 3900 ft.
Conditions: Light Snow.

PAHP 142256Z AUTO 00000KT 8SM -SN SCT028 OVC039 M12/M13 A2943 RMK AO2 SNB01 SLP003 P0000 T11171128 FZRANO


Wind - Calm.

 
 
jpsmedia.com for Web Design worldairports.se 2018   terms of use